Egmond aan Zee, Netherlands
Current Conditions -  °F | °C
As of 8:25 PM on Friday 31 Oct 2014 (Local Time) from EHKD Reporting Station
Clear Clear  
Wind Chill: 57°   Ceiling: Unl
Heat Index: 57°   Visibility: 6mi
Dew Point: 54°   Wind: 9mph
Humidity: 88%   Direction: 160°SSE
Pressure: 30.09"   Gusts: NA
Location:  52.62°N, 4.63°E
Report Text: EHKD 311925Z AUTO 16008KT 9999 NCD 14/12 Q1019 BLU 21010KT CAVOK
Loading
Personal Weather Stations






























Interactive Weather Map
Tropical Storm Tracking
New forecast layout! Learn more

10-Day Weather Forecast

Advertisements
Track Severe Weather on mobile